ADDS METAR Data INFO
IDs: Format: Raw Decoded Include TAF

Data at: 1845 UTC 17 Oct 2017

KART 171756Z AUTO 22016G22KT 10SM FEW040 FEW120 14/03 A3015 RMK AO2 SLP211 T01390033 10144 20022 58032
KART 171656Z AUTO 21013G20KT 10SM CLR 13/02 A3019 RMK AO2 SLP224 T01330017
KART 171556Z AUTO 18010G19KT 10SM CLR 11/00 A3021 RMK AO2 SLP233 T01110000
KART 171456Z AUTO 19011G18KT 10SM CLR 10/02 A3024 RMK AO2 SLP245 T01000017 58008
KART 171356Z AUTO 20009G16KT 10SM CLR 08/02 A3026 RMK AO2 SLP251 T00780022
KART 171256Z AUTO 18007KT 10SM CLR 06/01 A3027 RMK AO2 SLP254 T00560011
KART 171156Z AUTO 17005KT 10SM CLR 02/M01 A3027 RMK AO2 SLP254 I6000 T00221006 10022 21022 58001
KART 171056Z AUTO 18004KT 10SM CLR 01/M01 A3027 RMK AO2 SLP254 T00111011
KART 170956Z AUTO VRB03KT 10SM CLR 01/M01 A3027 RMK AO2 SLP255 T00061011
KART 170856Z AUTO 18004KT 10SM CLR 00/M01 A3027 RMK AO2 SLP254 I3000 T00001011 51002
KART 170756Z AUTO 12003KT 10SM CLR M01/M02 A3027 RMK AO2 SLP252 I1000 T10111017
KART 170656Z AUTO 09003KT 10SM CLR M02/M02 A3027 RMK AO2 SLP254 I1000 T10221022
KART 170556Z AUTO 00000KT 10SM CLR M02/M02 A3026 RMK AO2 SLP252 I1001 I6002 T10171017 10028 21017 53001
KART 170456Z AUTO 00000KT 10SM CLR M02/M02 A3025 RMK AO2 SLP247 I1000 T10171017 400891017
KART 170356Z AUTO 12003KT 10SM CLR M01/M02 A3026 RMK AO2 SLP250 I1001 T10111017
KART 170256Z AUTO 00000KT 10SM CLR M01/M01 A3026 RMK AO2 SLP250 T10061011 53009
KART 170156Z AUTO 14003KT 10SM CLR 00/M01 A3025 RMK AO2 SLP246 T00001006
KART 170056Z AUTO 00000KT 10SM CLR 01/01 A3024 RMK AO2 SLP243 T00060006
KART 162356Z AUTO 00000KT 10SM CLR 03/02 A3023 RMK AO2 SLP241 T00280017 10089 20028 53018
KART 162256Z AUTO 34003KT 10SM OVC060 06/02 A3022 RMK AO2 SLP235 T00560017
KART 162156Z AUTO 32007KT 10SM BKN060 07/02 A3019 RMK AO2 SLP226 T00670017
KART 162056Z AUTO 32008KT 10SM OVC060 08/02 A3018 RMK AO2 SLP221 T00780022 53010
KART 161956Z AUTO 33008KT 10SM SCT043 OVC060 08/01 A3016 RMK AO2 SLP215 T00830006
KART 161856Z AUTO 26006KT 10SM BKN060 08/02 A3015 RMK AO2 SLP210 T00830022
KART 161756Z AUTO 01004KT 10SM OVC048 08/01 A3015 RMK AO2 SLP210 60000 T00830011 10089 20056 58001
KART 161656Z AUTO 29006KT 10SM FEW036 OVC047 08/02 A3015 RMK AO2 SLP212 T00780017
KART 161556Z AUTO VRB03KT 10SM FEW024 OVC044 08/02 A3016 RMK AO2 RAE17B20E45 SLP214 P0000 T00780022
KART 161533Z AUTO 02008KT 10SM -RA SCT024 BKN030 OVC042 07/03 A3015 RMK AO2 RAE17B20 P0000 T00670028
KART 161519Z AUTO 01009KT 10SM BKN024 BKN031 OVC044 06/03 A3015 RMK AO2 RAE17 P0000 T00610028
KART 161456Z AUTO 32005KT 10SM -RA SCT029 BKN038 OVC046 07/03 A3015 RMK AO2 RAB30 SLP210 P0000 60000 T00670028 51006
KART 161356Z AUTO 33008KT 10SM SCT029 OVC042 07/03 A3014 RMK AO2 RAE40 SLP207 P0000 T00670028
KART 161329Z AUTO 32007KT 10SM -RA BKN026 OVC034 06/03 A3014 RMK AO2 P0000 T00610028
KART 161317Z AUTO 32006KT 9SM -RA SCT024 OVC031 06/03 A3013 RMK AO2 P0000 T00610028
KART 161256Z AUTO 01007KT 7SM -RA OVC027 06/03 A3013 RMK AO2 RAB32 SLP202 P0000 T00560028
KART 161240Z AUTO 36008KT 6SM -RA OVC028 06/02 A3013 RMK AO2 RAB32 P0000 T00560022
KART 161232Z AUTO 34008KT 7SM -RA OVC030 06/02 A3012 RMK AO2 RAB32 P0000 T00610022
KART 161156Z AUTO 34008KT 10SM OVC027 06/02 A3010 RMK AO2 SLP193 70005 T00610017 10083 20061 51028
KART 161056Z AUTO 32007KT 10SM OVC026 07/02 A3008 RMK AO2 SLP184 T00670022 $
KART 160956Z AUTO 34007KT 10SM OVC026 07/03 A3005 RMK AO2 SLP174 T00670028 $
KART 160856Z AUTO 34006KT 10SM OVC026 07/03 A3002 RMK AO2 SLP162 T00720033 51024 $
KART 160756Z AUTO 35007KT 10SM OVC029 08/03 A3000 RMK AO2 SLP155 T00780033 $
KART 160707Z AUTO 33010KT 10SM OVC028 08/04 A2998 RMK AO2 T00780039 $
KART 160656Z AUTO 32010KT 10SM OVC030 08/04 A2998 RMK AO2 SLP148 T00780039 $